sensor_id;sensor_type;location;lat;lon;timestamp;P1;durP1;ratioP1;P2;durP2;ratioP2
40072;SDS011;25774;52.256;9.356;2022-11-12T00:01:18;5.27;;;2.77;;
40072;SDS011;25774;52.256;9.356;2022-11-12T00:03:44;10.93;;;3.03;;
40072;SDS011;25774;52.256;9.356;2022-11-12T00:06:10;6.13;;;3.00;;
40072;SDS011;25774;52.256;9.356;2022-11-12T00:08:35;6.23;;;2.90;;
40072;SDS011;25774;52.256;9.356;2022-11-12T00:11:00;6.67;;;3.20;;
40072;SDS011;25774;52.256;9.356;2022-11-12T00:13:26;7.73;;;3.40;;
40072;SDS011;25774;52.256;9.356;2022-11-12T00:15:51;5.03;;;2.33;;
40072;SDS011;25774;52.256;9.356;2022-11-12T00:18:17;5.30;;;2.57;;
40072;SDS011;25774;52.256;9.356;2022-11-12T00:20:42;3.80;;;1.93;;
40072;SDS011;25774;52.256;9.356;2022-11-12T00:23:08;4.22;;;1.50;;
40072;SDS011;25774;52.256;9.356;2022-11-12T00:25:34;3.87;;;1.83;;
40072;SDS011;25774;52.256;9.356;2022-11-12T00:28:07;5.17;;;2.13;;
40072;SDS011;25774;52.256;9.356;2022-11-12T00:30:36;7.15;;;2.10;;
40072;SDS011;25774;52.256;9.356;2022-11-12T00:33:03;6.43;;;2.20;;
40072;SDS011;25774;52.256;9.356;2022-11-12T00:35:29;7.15;;;2.45;;
40072;SDS011;25774;52.256;9.356;2022-11-12T00:37:56;7.60;;;3.03;;
40072;SDS011;25774;52.256;9.356;2022-11-12T00:40:22;7.63;;;2.72;;
40072;SDS011;25774;52.256;9.356;2022-11-12T00:42:49;8.07;;;3.30;;
40072;SDS011;25774;52.256;9.356;2022-11-12T00:45:17;6.32;;;2.88;;
40072;SDS011;25774;52.256;9.356;2022-11-12T00:47:43;6.50;;;3.17;;
40072;SDS011;25774;52.256;9.356;2022-11-12T00:50:10;6.65;;;3.60;;
40072;SDS011;25774;52.256;9.356;2022-11-12T00:55:00;11.38;;;3.15;;
40072;SDS011;25774;52.256;9.356;2022-11-12T00:57:26;5.67;;;3.17;;
40072;SDS011;25774;52.256;9.356;2022-11-12T00:59:51;6.97;;;3.40;;
40072;SDS011;25774;52.256;9.356;2022-11-12T01:02:17;9.33;;;2.70;;
40072;SDS011;25774;52.256;9.356;2022-11-12T01:04:44;12.70;;;5.25;;
40072;SDS011;25774;52.256;9.356;2022-11-12T01:07:10;6.07;;;2.73;;
40072;SDS011;25774;52.256;9.356;2022-11-12T01:09:35;10.97;;;2.90;;
40072;SDS011;25774;52.256;9.356;2022-11-12T01:12:00;9.87;;;3.33;;
40072;SDS011;25774;52.256;9.356;2022-11-12T01:14:26;10.93;;;3.07;;
40072;SDS011;25774;52.256;9.356;2022-11-12T01:16:51;6.33;;;2.80;;
40072;SDS011;25774;52.256;9.356;2022-11-12T01:19:16;7.03;;;3.43;;
40072;SDS011;25774;52.256;9.356;2022-11-12T01:21:42;6.37;;;2.90;;
40072;SDS011;25774;52.256;9.356;2022-11-12T01:24:08;9.75;;;2.90;;
40072;SDS011;25774;52.256;9.356;2022-11-12T01:26:34;6.22;;;3.25;;
40072;SDS011;25774;52.256;9.356;2022-11-12T01:29:01;6.22;;;3.40;;
40072;SDS011;25774;52.256;9.356;2022-11-12T01:31:28;5.60;;;2.75;;
40072;SDS011;25774;52.256;9.356;2022-11-12T01:33:57;6.25;;;3.28;;
40072;SDS011;25774;52.256;9.356;2022-11-12T01:36:25;7.28;;;3.28;;
40072;SDS011;25774;52.256;9.356;2022-11-12T01:38:51;6.57;;;2.97;;
40072;SDS011;25774;52.256;9.356;2022-11-12T01:41:18;5.05;;;3.15;;
40072;SDS011;25774;52.256;9.356;2022-11-12T01:44:08;9.52;;;2.92;;
40072;SDS011;25774;52.256;9.356;2022-11-12T01:46:34;7.10;;;3.28;;
40072;SDS011;25774;52.256;9.356;2022-11-12T01:49:04;7.35;;;2.75;;
40072;SDS011;25774;52.256;9.356;2022-11-12T01:51:38;5.70;;;3.00;;
40072;SDS011;25774;52.256;9.356;2022-11-12T01:54:07;8.20;;;3.20;;
40072;SDS011;25774;52.256;9.356;2022-11-12T01:56:35;7.90;;;2.63;;
40072;SDS011;25774;52.256;9.356;2022-11-12T01:59:03;8.43;;;3.25;;
40072;SDS011;25774;52.256;9.356;2022-11-12T02:01:32;6.78;;;3.20;;
40072;SDS011;25774;52.256;9.356;2022-11-12T02:04:00;7.50;;;3.25;;
40072;SDS011;25774;52.256;9.356;2022-11-12T02:06:25;7.13;;;3.13;;
40072;SDS011;25774;52.256;9.356;2022-11-12T02:08:51;12.77;;;3.30;;
40072;SDS011;25774;52.256;9.356;2022-11-12T02:11:18;7.95;;;3.17;;
40072;SDS011;25774;52.256;9.356;2022-11-12T02:13:45;6.80;;;3.13;;
40072;SDS011;25774;52.256;9.356;2022-11-12T02:19:11;6.50;;;2.78;;
40072;SDS011;25774;52.256;9.356;2022-11-12T02:21:39;5.47;;;2.83;;
40072;SDS011;25774;52.256;9.356;2022-11-12T02:26:52;6.07;;;2.45;;
40072;SDS011;25774;52.256;9.356;2022-11-12T02:29:19;5.82;;;2.90;;
40072;SDS011;25774;52.256;9.356;2022-11-12T02:31:45;6.25;;;2.90;;
40072;SDS011;25774;52.256;9.356;2022-11-12T02:34:11;7.83;;;2.57;;
40072;SDS011;25774;52.256;9.356;2022-11-12T02:36:36;5.50;;;2.13;;
40072;SDS011;25774;52.256;9.356;2022-11-12T02:39:02;4.33;;;1.67;;
40072;SDS011;25774;52.256;9.356;2022-11-12T02:41:27;5.97;;;1.65;;
40072;SDS011;25774;52.256;9.356;2022-11-12T02:43:53;4.80;;;2.27;;
40072;SDS011;25774;52.256;9.356;2022-11-12T02:46:18;4.10;;;1.90;;
40072;SDS011;25774;52.256;9.356;2022-11-12T02:48:43;4.97;;;2.27;;
40072;SDS011;25774;52.256;9.356;2022-11-12T02:51:09;7.00;;;1.80;;
40072;SDS011;25774;52.256;9.356;2022-11-12T02:53:35;3.00;;;1.65;;
40072;SDS011;25774;52.256;9.356;2022-11-12T02:56:00;4.10;;;2.10;;
40072;SDS011;25774;52.256;9.356;2022-11-12T02:58:26;5.35;;;2.40;;
40072;SDS011;25774;52.256;9.356;2022-11-12T03:00:52;3.50;;;1.80;;
40072;SDS011;25774;52.256;9.356;2022-11-12T03:03:19;3.90;;;1.80;;
40072;SDS011;25774;52.256;9.356;2022-11-12T03:05:45;5.07;;;2.00;;
40072;SDS011;25774;52.256;9.356;2022-11-12T03:08:18;3.40;;;1.58;;
40072;SDS011;25774;52.256;9.356;2022-11-12T03:10:43;3.83;;;1.40;;
40072;SDS011;25774;52.256;9.356;2022-11-12T03:13:08;2.97;;;1.33;;
40072;SDS011;25774;52.256;9.356;2022-11-12T03:15:34;3.70;;;1.77;;
40072;SDS011;25774;52.256;9.356;2022-11-12T03:17:59;5.93;;;2.40;;
40072;SDS011;25774;52.256;9.356;2022-11-12T03:20:25;4.13;;;1.70;;
40072;SDS011;25774;52.256;9.356;2022-11-12T03:22:54;9.02;;;2.03;;
40072;SDS011;25774;52.256;9.356;2022-11-12T03:25:30;5.85;;;2.20;;
40072;SDS011;25774;52.256;9.356;2022-11-12T03:27:59;4.70;;;1.90;;
40072;SDS011;25774;52.256;9.356;2022-11-12T03:30:26;5.00;;;2.40;;
40072;SDS011;25774;52.256;9.356;2022-11-12T03:32:52;6.53;;;2.60;;
40072;SDS011;25774;52.256;9.356;2022-11-12T03:35:18;4.17;;;2.30;;
40072;SDS011;25774;52.256;9.356;2022-11-12T03:37:45;5.88;;;2.55;;
40072;SDS011;25774;52.256;9.356;2022-11-12T03:42:36;4.85;;;2.28;;
40072;SDS011;25774;52.256;9.356;2022-11-12T03:45:03;5.93;;;3.00;;
40072;SDS011;25774;52.256;9.356;2022-11-12T03:47:29;7.72;;;2.75;;
40072;SDS011;25774;52.256;9.356;2022-11-12T03:49:54;10.30;;;3.00;;
40072;SDS011;25774;52.256;9.356;2022-11-12T03:52:19;13.53;;;3.63;;
40072;SDS011;25774;52.256;9.356;2022-11-12T03:54:44;7.73;;;3.27;;
40072;SDS011;25774;52.256;9.356;2022-11-12T03:57:11;6.67;;;3.03;;
40072;SDS011;25774;52.256;9.356;2022-11-12T03:59:36;6.75;;;2.78;;
40072;SDS011;25774;52.256;9.356;2022-11-12T04:02:02;9.03;;;3.37;;
40072;SDS011;25774;52.256;9.356;2022-11-12T04:04:28;6.50;;;3.22;;
40072;SDS011;25774;52.256;9.356;2022-11-12T04:07:19;6.28;;;2.63;;
40072;SDS011;25774;52.256;9.356;2022-11-12T04:10:03;11.38;;;3.63;;
40072;SDS011;25774;52.256;9.356;2022-11-12T04:12:29;9.65;;;3.63;;
40072;SDS011;25774;52.256;9.356;2022-11-12T04:15:26;6.50;;;3.05;;
40072;SDS011;25774;52.256;9.356;2022-11-12T04:17:52;7.37;;;3.60;;
40072;SDS011;25774;52.256;9.356;2022-11-12T04:20:37;8.70;;;4.03;;
40072;SDS011;25774;52.256;9.356;2022-11-12T04:23:21;6.93;;;3.65;;
40072;SDS011;25774;52.256;9.356;2022-11-12T04:25:46;11.63;;;3.80;;
40072;SDS011;25774;52.256;9.356;2022-11-12T04:28:30;9.10;;;3.85;;
40072;SDS011;25774;52.256;9.356;2022-11-12T04:30:56;9.57;;;4.03;;
40072;SDS011;25774;52.256;9.356;2022-11-12T04:33:21;8.73;;;3.90;;
40072;SDS011;25774;52.256;9.356;2022-11-12T04:35:48;10.07;;;3.70;;
40072;SDS011;25774;52.256;9.356;2022-11-12T04:38:13;8.10;;;4.32;;
40072;SDS011;25774;52.256;9.356;2022-11-12T04:40:39;8.33;;;4.10;;
40072;SDS011;25774;52.256;9.356;2022-11-12T04:43:23;12.15;;;4.03;;
40072;SDS011;25774;52.256;9.356;2022-11-12T04:46:08;11.13;;;4.43;;
40072;SDS011;25774;52.256;9.356;2022-11-12T04:48:33;8.25;;;3.83;;
40072;SDS011;25774;52.256;9.356;2022-11-12T04:50:59;7.97;;;3.70;;
40072;SDS011;25774;52.256;9.356;2022-11-12T04:53:26;8.20;;;3.83;;
40072;SDS011;25774;52.256;9.356;2022-11-12T04:55:53;9.75;;;3.80;;
40072;SDS011;25774;52.256;9.356;2022-11-12T04:58:20;6.93;;;3.28;;
40072;SDS011;25774;52.256;9.356;2022-11-12T05:00:46;8.93;;;3.77;;
40072;SDS011;25774;52.256;9.356;2022-11-12T05:03:12;7.32;;;3.75;;
40072;SDS011;25774;52.256;9.356;2022-11-12T05:05:38;7.87;;;4.07;;
40072;SDS011;25774;52.256;9.356;2022-11-12T05:08:03;9.00;;;4.37;;
40072;SDS011;25774;52.256;9.356;2022-11-12T05:10:29;8.63;;;4.27;;
40072;SDS011;25774;52.256;9.356;2022-11-12T05:12:55;12.25;;;4.18;;
40072;SDS011;25774;52.256;9.356;2022-11-12T05:15:20;10.60;;;3.77;;
40072;SDS011;25774;52.256;9.356;2022-11-12T05:17:46;11.03;;;3.73;;
40072;SDS011;25774;52.256;9.356;2022-11-12T05:20:11;11.57;;;5.00;;
40072;SDS011;25774;52.256;9.356;2022-11-12T05:22:37;11.98;;;4.68;;
40072;SDS011;25774;52.256;9.356;2022-11-12T05:25:04;7.97;;;4.22;;
40072;SDS011;25774;52.256;9.356;2022-11-12T05:29:55;11.40;;;3.97;;
40072;SDS011;25774;52.256;9.356;2022-11-12T05:32:21;7.27;;;4.10;;
40072;SDS011;25774;52.256;9.356;2022-11-12T05:34:46;9.93;;;4.93;;
40072;SDS011;25774;52.256;9.356;2022-11-12T05:37:12;11.37;;;4.67;;
40072;SDS011;25774;52.256;9.356;2022-11-12T05:39:39;10.68;;;5.00;;
40072;SDS011;25774;52.256;9.356;2022-11-12T05:44:30;9.60;;;3.30;;
40072;SDS011;25774;52.256;9.356;2022-11-12T05:46:56;7.27;;;3.83;;
40072;SDS011;25774;52.256;9.356;2022-11-12T05:49:21;9.80;;;4.13;;
40072;SDS011;25774;52.256;9.356;2022-11-12T05:51:46;9.80;;;4.57;;
40072;SDS011;25774;52.256;9.356;2022-11-12T05:54:12;11.17;;;4.73;;
40072;SDS011;25774;52.256;9.356;2022-11-12T05:56:38;8.80;;;4.23;;
40072;SDS011;25774;52.256;9.356;2022-11-12T05:59:07;14.13;;;4.72;;
40072;SDS011;25774;52.256;9.356;2022-11-12T06:01:33;9.32;;;4.95;;
40072;SDS011;25774;52.256;9.356;2022-11-12T06:04:02;9.20;;;4.38;;
40072;SDS011;25774;52.256;9.356;2022-11-12T06:08:56;10.05;;;3.97;;
40072;SDS011;25774;52.256;9.356;2022-11-12T06:13:46;7.05;;;3.33;;
40072;SDS011;25774;52.256;9.356;2022-11-12T06:16:11;12.73;;;4.30;;
40072;SDS011;25774;52.256;9.356;2022-11-12T06:18:37;8.80;;;4.23;;
40072;SDS011;25774;52.256;9.356;2022-11-12T06:21:06;12.67;;;4.27;;
40072;SDS011;25774;52.256;9.356;2022-11-12T06:23:53;7.10;;;3.45;;
40072;SDS011;25774;52.256;9.356;2022-11-12T06:26:20;7.88;;;4.07;;
40072;SDS011;25774;52.256;9.356;2022-11-12T06:28:46;8.48;;;4.10;;
40072;SDS011;25774;52.256;9.356;2022-11-12T06:31:13;7.95;;;3.22;;
40072;SDS011;25774;52.256;9.356;2022-11-12T06:33:39;11.88;;;3.33;;
40072;SDS011;25774;52.256;9.356;2022-11-12T06:36:04;5.73;;;3.13;;
40072;SDS011;25774;52.256;9.356;2022-11-12T06:38:31;5.20;;;3.08;;
40072;SDS011;25774;52.256;9.356;2022-11-12T06:40:58;7.22;;;3.47;;
40072;SDS011;25774;52.256;9.356;2022-11-12T06:43:24;9.32;;;3.85;;
40072;SDS011;25774;52.256;9.356;2022-11-12T06:45:51;8.30;;;3.47;;
40072;SDS011;25774;52.256;9.356;2022-11-12T06:48:17;12.50;;;4.50;;
40072;SDS011;25774;52.256;9.356;2022-11-12T06:50:43;7.17;;;3.77;;
40072;SDS011;25774;52.256;9.356;2022-11-12T06:55:34;13.02;;;5.40;;
40072;SDS011;25774;52.256;9.356;2022-11-12T06:58:01;9.27;;;4.57;;
40072;SDS011;25774;52.256;9.356;2022-11-12T07:00:27;11.45;;;4.72;;
40072;SDS011;25774;52.256;9.356;2022-11-12T07:02:52;10.95;;;5.13;;
40072;SDS011;25774;52.256;9.356;2022-11-12T07:05:17;13.17;;;5.43;;
40072;SDS011;25774;52.256;9.356;2022-11-12T07:07:44;7.23;;;4.43;;
40072;SDS011;25774;52.256;9.356;2022-11-12T07:10:09;10.85;;;4.97;;
40072;SDS011;25774;52.256;9.356;2022-11-12T07:12:34;11.67;;;5.77;;
40072;SDS011;25774;52.256;9.356;2022-11-12T07:15:02;10.53;;;5.57;;
40072;SDS011;25774;52.256;9.356;2022-11-12T07:17:27;12.35;;;6.18;;
40072;SDS011;25774;52.256;9.356;2022-11-12T07:19:55;14.80;;;6.03;;
40072;SDS011;25774;52.256;9.356;2022-11-12T07:22:20;14.65;;;5.85;;
40072;SDS011;25774;52.256;9.356;2022-11-12T07:24:46;11.23;;;6.37;;
40072;SDS011;25774;52.256;9.356;2022-11-12T07:27:11;12.83;;;6.63;;
40072;SDS011;25774;52.256;9.356;2022-11-12T07:29:37;12.67;;;6.10;;
40072;SDS011;25774;52.256;9.356;2022-11-12T07:32:03;11.70;;;6.32;;
40072;SDS011;25774;52.256;9.356;2022-11-12T07:34:28;15.73;;;7.63;;
40072;SDS011;25774;52.256;9.356;2022-11-12T07:36:55;11.53;;;5.63;;
40072;SDS011;25774;52.256;9.356;2022-11-12T07:39:20;12.05;;;5.88;;
40072;SDS011;25774;52.256;9.356;2022-11-12T07:41:45;11.53;;;6.60;;
40072;SDS011;25774;52.256;9.356;2022-11-12T07:44:12;17.23;;;6.30;;
40072;SDS011;25774;52.256;9.356;2022-11-12T07:46:37;9.93;;;5.10;;
40072;SDS011;25774;52.256;9.356;2022-11-12T07:49:02;11.40;;;4.97;;
40072;SDS011;25774;52.256;9.356;2022-11-12T07:51:28;12.17;;;4.63;;
40072;SDS011;25774;52.256;9.356;2022-11-12T07:53:56;10.07;;;5.13;;
40072;SDS011;25774;52.256;9.356;2022-11-12T07:56:23;8.70;;;4.53;;
40072;SDS011;25774;52.256;9.356;2022-11-12T07:58:50;8.25;;;3.75;;
40072;SDS011;25774;52.256;9.356;2022-11-12T08:03:56;12.38;;;4.72;;
40072;SDS011;25774;52.256;9.356;2022-11-12T08:06:23;9.43;;;5.32;;
40072;SDS011;25774;52.256;9.356;2022-11-12T08:08:52;12.70;;;6.10;;
40072;SDS011;25774;52.256;9.356;2022-11-12T08:11:21;15.65;;;5.88;;
40072;SDS011;25774;52.256;9.356;2022-11-12T08:13:46;13.20;;;6.60;;
40072;SDS011;25774;52.256;9.356;2022-11-12T08:16:12;12.18;;;6.40;;
40072;SDS011;25774;52.256;9.356;2022-11-12T08:18:38;13.10;;;6.50;;
40072;SDS011;25774;52.256;9.356;2022-11-12T08:21:04;11.83;;;5.93;;
40072;SDS011;25774;52.256;9.356;2022-11-12T08:23:30;10.13;;;5.80;;
40072;SDS011;25774;52.256;9.356;2022-11-12T08:25:56;11.80;;;6.25;;
40072;SDS011;25774;52.256;9.356;2022-11-12T08:28:29;11.43;;;6.95;;
40072;SDS011;25774;52.256;9.356;2022-11-12T08:31:11;11.85;;;6.53;;
40072;SDS011;25774;52.256;9.356;2022-11-12T08:33:42;14.45;;;6.15;;
40072;SDS011;25774;52.256;9.356;2022-11-12T08:36:09;12.25;;;6.60;;
40072;SDS011;25774;52.256;9.356;2022-11-12T08:38:37;15.10;;;7.20;;
40072;SDS011;25774;52.256;9.356;2022-11-12T08:41:05;11.43;;;6.10;;
40072;SDS011;25774;52.256;9.356;2022-11-12T08:43:33;15.75;;;6.78;;
40072;SDS011;25774;52.256;9.356;2022-11-12T08:45:59;13.38;;;5.95;;
40072;SDS011;25774;52.256;9.356;2022-11-12T08:48:26;11.73;;;6.35;;
40072;SDS011;25774;52.256;9.356;2022-11-12T08:50:53;12.40;;;6.43;;
40072;SDS011;25774;52.256;9.356;2022-11-12T08:53:19;12.95;;;6.93;;
40072;SDS011;25774;52.256;9.356;2022-11-12T08:55:46;11.65;;;5.80;;
40072;SDS011;25774;52.256;9.356;2022-11-12T08:58:11;13.63;;;8.17;;
40072;SDS011;25774;52.256;9.356;2022-11-12T09:00:39;14.50;;;6.63;;
40072;SDS011;25774;52.256;9.356;2022-11-12T09:03:10;11.52;;;6.43;;
40072;SDS011;25774;52.256;9.356;2022-11-12T09:05:38;12.05;;;7.00;;
40072;SDS011;25774;52.256;9.356;2022-11-12T09:08:04;12.07;;;6.30;;
40072;SDS011;25774;52.256;9.356;2022-11-12T09:10:31;14.07;;;6.65;;
40072;SDS011;25774;52.256;9.356;2022-11-12T09:12:57;13.93;;;6.68;;
40072;SDS011;25774;52.256;9.356;2022-11-12T09:15:23;13.50;;;6.77;;
40072;SDS011;25774;52.256;9.356;2022-11-12T09:18:02;10.57;;;6.20;;
40072;SDS011;25774;52.256;9.356;2022-11-12T09:20:30;12.65;;;6.47;;
40072;SDS011;25774;52.256;9.356;2022-11-12T09:22:59;13.32;;;6.40;;
40072;SDS011;25774;52.256;9.356;2022-11-12T09:25:32;16.15;;;7.00;;
40072;SDS011;25774;52.256;9.356;2022-11-12T09:28:04;12.57;;;6.60;;
40072;SDS011;25774;52.256;9.356;2022-11-12T09:30:32;12.77;;;6.13;;
40072;SDS011;25774;52.256;9.356;2022-11-12T09:32:57;13.52;;;6.88;;
40072;SDS011;25774;52.256;9.356;2022-11-12T09:35:22;11.93;;;6.07;;
40072;SDS011;25774;52.256;9.356;2022-11-12T09:37:48;11.30;;;6.13;;
40072;SDS011;25774;52.256;9.356;2022-11-12T09:40:17;14.30;;;6.90;;
40072;SDS011;25774;52.256;9.356;2022-11-12T09:42:44;12.55;;;6.68;;
40072;SDS011;25774;52.256;9.356;2022-11-12T09:45:48;15.48;;;6.43;;
40072;SDS011;25774;52.256;9.356;2022-11-12T09:48:07;19.15;;;6.70;;
40072;SDS011;25774;52.256;9.356;2022-11-12T09:50:38;13.98;;;6.50;;
40072;SDS011;25774;52.256;9.356;2022-11-12T09:53:13;12.18;;;6.47;;
40072;SDS011;25774;52.256;9.356;2022-11-12T09:55:45;16.38;;;7.43;;
40072;SDS011;25774;52.256;9.356;2022-11-12T09:58:14;13.50;;;6.60;;
40072;SDS011;25774;52.256;9.356;2022-11-12T10:00:48;14.13;;;6.78;;
40072;SDS011;25774;52.256;9.356;2022-11-12T10:06:08;12.27;;;6.78;;
40072;SDS011;25774;52.256;9.356;2022-11-12T10:11:09;12.80;;;6.60;;
40072;SDS011;25774;52.256;9.356;2022-11-12T10:16:33;10.05;;;5.68;;
40072;SDS011;25774;52.256;9.356;2022-11-12T10:27:56;12.82;;;5.90;;
40072;SDS011;25774;52.256;9.356;2022-11-12T10:30:22;12.20;;;5.57;;
40072;SDS011;25774;52.256;9.356;2022-11-12T10:32:49;11.00;;;5.63;;
40072;SDS011;25774;52.256;9.356;2022-11-12T10:35:17;14.07;;;4.85;;
40072;SDS011;25774;52.256;9.356;2022-11-12T10:43:00;11.48;;;4.97;;
40072;SDS011;25774;52.256;9.356;2022-11-12T10:45:29;9.52;;;4.70;;
40072;SDS011;25774;52.256;9.356;2022-11-12T10:47:55;11.20;;;4.47;;
40072;SDS011;25774;52.256;9.356;2022-11-12T10:50:24;8.00;;;4.47;;
40072;SDS011;25774;52.256;9.356;2022-11-12T10:53:01;9.73;;;4.50;;
40072;SDS011;25774;52.256;9.356;2022-11-12T10:55:34;6.95;;;3.75;;
40072;SDS011;25774;52.256;9.356;2022-11-12T11:03:28;8.15;;;4.50;;
40072;SDS011;25774;52.256;9.356;2022-11-12T11:08:33;14.63;;;5.90;;
40072;SDS011;25774;52.256;9.356;2022-11-12T11:13:56;9.38;;;4.25;;
40072;SDS011;25774;52.256;9.356;2022-11-12T11:16:32;8.43;;;4.63;;
40072;SDS011;25774;52.256;9.356;2022-11-12T11:19:14;7.53;;;4.10;;
40072;SDS011;25774;52.256;9.356;2022-11-12T11:32:36;11.63;;;4.20;;
40072;SDS011;25774;52.256;9.356;2022-11-12T11:49:43;6.45;;;4.10;;
40072;SDS011;25774;52.256;9.356;2022-11-12T11:52:44;8.50;;;3.95;;
40072;SDS011;25774;52.256;9.356;2022-11-12T11:55:14;7.85;;;3.80;;
40072;SDS011;25774;52.256;9.356;2022-11-12T12:01:08;9.40;;;3.75;;
40072;SDS011;25774;52.256;9.356;2022-11-12T12:06:25;6.60;;;3.75;;
40072;SDS011;25774;52.256;9.356;2022-11-12T12:14:51;10.57;;;4.38;;
40072;SDS011;25774;52.256;9.356;2022-11-12T12:26:02;6.32;;;3.17;;
40072;SDS011;25774;52.256;9.356;2022-11-12T12:28:42;8.13;;;3.70;;
40072;SDS011;25774;52.256;9.356;2022-11-12T12:31:16;6.35;;;3.85;;
40072;SDS011;25774;52.256;9.356;2022-11-12T12:33:52;12.95;;;4.40;;
40072;SDS011;25774;52.256;9.356;2022-11-12T12:36:25;7.05;;;4.35;;
40072;SDS011;25774;52.256;9.356;2022-11-12T12:44:51;7.13;;;3.60;;
40072;SDS011;25774;52.256;9.356;2022-11-12T12:47:30;7.25;;;3.70;;
40072;SDS011;25774;52.256;9.356;2022-11-12T12:50:01;9.30;;;4.20;;
40072;SDS011;25774;52.256;9.356;2022-11-12T12:52:29;7.40;;;4.30;;
40072;SDS011;25774;52.256;9.356;2022-11-12T12:58:19;7.32;;;3.75;;
40072;SDS011;25774;52.256;9.356;2022-11-12T13:00:53;8.88;;;3.28;;
40072;SDS011;25774;52.256;9.356;2022-11-12T13:08:46;7.32;;;3.17;;
40072;SDS011;25774;52.256;9.356;2022-11-12T13:19:34;4.85;;;2.47;;
40072;SDS011;25774;52.256;9.356;2022-11-12T13:25:02;4.53;;;2.42;;
40072;SDS011;25774;52.256;9.356;2022-11-12T13:35:13;5.85;;;2.95;;
40072;SDS011;25774;52.256;9.356;2022-11-12T13:43:32;5.63;;;2.38;;
40072;SDS011;25774;52.256;9.356;2022-11-12T13:54:59;4.80;;;2.75;;
40072;SDS011;25774;52.256;9.356;2022-11-12T13:56:54;7.63;;;3.40;;
40072;SDS011;25774;52.256;9.356;2022-11-12T13:59:21;7.68;;;4.07;;
40072;SDS011;25774;52.256;9.356;2022-11-12T14:01:49;10.20;;;4.82;;
40072;SDS011;25774;52.256;9.356;2022-11-12T14:04:15;10.82;;;4.57;;
40072;SDS011;25774;52.256;9.356;2022-11-12T14:06:44;13.10;;;4.68;;
40072;SDS011;25774;52.256;9.356;2022-11-12T14:20:28;7.28;;;2.95;;
40072;SDS011;25774;52.256;9.356;2022-11-12T14:23:10;8.52;;;3.65;;
40072;SDS011;25774;52.256;9.356;2022-11-12T14:25:51;8.27;;;2.95;;
40072;SDS011;25774;52.256;9.356;2022-11-12T14:28:27;7.47;;;3.47;;
40072;SDS011;25774;52.256;9.356;2022-11-12T14:30:54;9.35;;;3.55;;
40072;SDS011;25774;52.256;9.356;2022-11-12T14:33:21;6.28;;;3.30;;
40072;SDS011;25774;52.256;9.356;2022-11-12T14:35:50;7.07;;;3.35;;
40072;SDS011;25774;52.256;9.356;2022-11-12T14:38:20;5.88;;;2.88;;
40072;SDS011;25774;52.256;9.356;2022-11-12T14:40:54;6.30;;;3.05;;
40072;SDS011;25774;52.256;9.356;2022-11-12T14:43:56;6.15;;;3.40;;
40072;SDS011;25774;52.256;9.356;2022-11-12T14:48:51;4.50;;;2.78;;
40072;SDS011;25774;52.256;9.356;2022-11-12T14:51:20;8.52;;;4.10;;
40072;SDS011;25774;52.256;9.356;2022-11-12T14:53:52;6.90;;;3.25;;
40072;SDS011;25774;52.256;9.356;2022-11-12T14:56:32;6.65;;;2.83;;
40072;SDS011;25774;52.256;9.356;2022-11-12T14:59:03;5.63;;;3.30;;
40072;SDS011;25774;52.256;9.356;2022-11-12T15:01:32;6.13;;;3.40;;
40072;SDS011;25774;52.256;9.356;2022-11-12T15:06:34;6.60;;;3.38;;
40072;SDS011;25774;52.256;9.356;2022-11-12T15:08:59;7.67;;;3.67;;
40072;SDS011;25774;52.256;9.356;2022-11-12T15:11:27;6.97;;;3.23;;
40072;SDS011;25774;52.256;9.356;2022-11-12T15:13:57;6.00;;;3.58;;
40072;SDS011;25774;52.256;9.356;2022-11-12T15:16:30;6.78;;;3.97;;
40072;SDS011;25774;52.256;9.356;2022-11-12T15:19:12;8.70;;;3.67;;
40072;SDS011;25774;52.256;9.356;2022-11-12T15:21:46;9.32;;;4.50;;
40072;SDS011;25774;52.256;9.356;2022-11-12T15:24:27;7.78;;;3.95;;
40072;SDS011;25774;52.256;9.356;2022-11-12T15:27:00;8.88;;;3.72;;
40072;SDS011;25774;52.256;9.356;2022-11-12T15:29:46;7.68;;;3.50;;
40072;SDS011;25774;52.256;9.356;2022-11-12T15:39:58;9.40;;;3.60;;
40072;SDS011;25774;52.256;9.356;2022-11-12T15:45:02;3.40;;;2.05;;
40072;SDS011;25774;52.256;9.356;2022-11-12T15:47:33;5.40;;;2.10;;
40072;SDS011;25774;52.256;9.356;2022-11-12T15:49:58;4.10;;;2.20;;
40072;SDS011;25774;52.256;9.356;2022-11-12T15:52:24;4.03;;;2.33;;
40072;SDS011;25774;52.256;9.356;2022-11-12T15:54:51;8.55;;;2.78;;
40072;SDS011;25774;52.256;9.356;2022-11-12T15:57:19;5.25;;;2.15;;
40072;SDS011;25774;52.256;9.356;2022-11-12T16:00:00;5.43;;;2.65;;
40072;SDS011;25774;52.256;9.356;2022-11-12T16:02:29;6.60;;;3.30;;
40072;SDS011;25774;52.256;9.356;2022-11-12T16:04:55;7.57;;;3.28;;
40072;SDS011;25774;52.256;9.356;2022-11-12T16:07:20;16.17;;;4.97;;
40072;SDS011;25774;52.256;9.356;2022-11-12T16:09:45;6.13;;;2.77;;
40072;SDS011;25774;52.256;9.356;2022-11-12T16:12:11;7.07;;;2.60;;
40072;SDS011;25774;52.256;9.356;2022-11-12T16:17:02;13.07;;;4.95;;
40072;SDS011;25774;52.256;9.356;2022-11-12T16:19:28;16.50;;;5.03;;
40072;SDS011;25774;52.256;9.356;2022-11-12T16:21:58;10.80;;;4.13;;
40072;SDS011;25774;52.256;9.356;2022-11-12T16:24:28;13.70;;;4.97;;
40072;SDS011;25774;52.256;9.356;2022-11-12T16:26:54;9.43;;;3.40;;
40072;SDS011;25774;52.256;9.356;2022-11-12T16:29:19;6.43;;;3.90;;
40072;SDS011;25774;52.256;9.356;2022-11-12T16:31:46;5.83;;;2.70;;
40072;SDS011;25774;52.256;9.356;2022-11-12T16:34:12;6.03;;;2.60;;
40072;SDS011;25774;52.256;9.356;2022-11-12T16:36:37;7.38;;;2.83;;
40072;SDS011;25774;52.256;9.356;2022-11-12T16:39:03;6.15;;;3.50;;
40072;SDS011;25774;52.256;9.356;2022-11-12T16:41:29;6.30;;;2.60;;
40072;SDS011;25774;52.256;9.356;2022-11-12T16:43:55;8.03;;;2.53;;
40072;SDS011;25774;52.256;9.356;2022-11-12T16:46:24;4.93;;;2.50;;
40072;SDS011;25774;52.256;9.356;2022-11-12T16:48:52;9.75;;;3.13;;
40072;SDS011;25774;52.256;9.356;2022-11-12T16:51:18;4.38;;;2.33;;
40072;SDS011;25774;52.256;9.356;2022-11-12T16:53:45;5.20;;;1.80;;
40072;SDS011;25774;52.256;9.356;2022-11-12T16:56:11;5.70;;;2.72;;
40072;SDS011;25774;52.256;9.356;2022-11-12T16:58:40;8.45;;;2.50;;
40072;SDS011;25774;52.256;9.356;2022-11-12T17:01:05;4.53;;;2.33;;
40072;SDS011;25774;52.256;9.356;2022-11-12T17:03:32;4.68;;;1.77;;
40072;SDS011;25774;52.256;9.356;2022-11-12T17:05:57;5.13;;;2.20;;
40072;SDS011;25774;52.256;9.356;2022-11-12T17:08:23;3.92;;;1.98;;
40072;SDS011;25774;52.256;9.356;2022-11-12T17:10:50;5.25;;;2.00;;
40072;SDS011;25774;52.256;9.356;2022-11-12T17:13:15;3.23;;;1.70;;
40072;SDS011;25774;52.256;9.356;2022-11-12T17:15:41;3.67;;;1.87;;
40072;SDS011;25774;52.256;9.356;2022-11-12T17:18:06;5.83;;;2.03;;
40072;SDS011;25774;52.256;9.356;2022-11-12T17:20:32;6.70;;;2.53;;
40072;SDS011;25774;52.256;9.356;2022-11-12T17:25:25;4.50;;;2.55;;
40072;SDS011;25774;52.256;9.356;2022-11-12T17:27:50;4.57;;;2.30;;
40072;SDS011;25774;52.256;9.356;2022-11-12T17:30:15;4.50;;;2.27;;
40072;SDS011;25774;52.256;9.356;2022-11-12T17:32:41;3.80;;;2.00;;
40072;SDS011;25774;52.256;9.356;2022-11-12T17:35:07;6.00;;;2.80;;
40072;SDS011;25774;52.256;9.356;2022-11-12T17:37:34;11.43;;;2.80;;
40072;SDS011;25774;52.256;9.356;2022-11-12T17:39:59;7.72;;;4.15;;
40072;SDS011;25774;52.256;9.356;2022-11-12T17:42:24;6.23;;;3.23;;
40072;SDS011;25774;52.256;9.356;2022-11-12T17:44:50;7.93;;;3.13;;
40072;SDS011;25774;52.256;9.356;2022-11-12T17:47:15;5.40;;;2.60;;
40072;SDS011;25774;52.256;9.356;2022-11-12T17:49:40;6.03;;;3.13;;
40072;SDS011;25774;52.256;9.356;2022-11-12T17:52:06;8.00;;;2.80;;
40072;SDS011;25774;52.256;9.356;2022-11-12T17:54:32;7.00;;;3.30;;